createdAt,value
2023-04-18T00:02:23.040Z,9.10
2023-04-18T00:04:51.460Z,9.10
2023-04-18T00:07:19.594Z,9.10
2023-04-18T00:09:55.296Z,9.10
2023-04-18T00:12:23.292Z,9.10
2023-04-18T00:14:52.164Z,9.10
2023-04-18T00:17:21.136Z,9.10
2023-04-18T00:19:51.721Z,9.10
2023-04-18T00:22:22.542Z,9.10
2023-04-18T00:24:53.098Z,9.10
2023-04-18T00:27:21.809Z,9.10
2023-04-18T00:29:56.738Z,9.00
2023-04-18T00:32:24.793Z,9.00
2023-04-18T00:34:55.031Z,9.10
2023-04-18T00:37:25.788Z,9.10
2023-04-18T00:39:56.882Z,9.10
2023-04-18T00:42:25.975Z,9.00
2023-04-18T00:45:03.067Z,9.00
2023-04-18T00:47:31.106Z,9.10
2023-04-18T00:50:02.545Z,9.00
2023-04-18T00:52:30.640Z,9.10
2023-04-18T00:55:00.559Z,9.00
2023-04-18T00:57:32.201Z,9.10
2023-04-18T01:00:02.253Z,9.10
2023-04-18T01:02:35.828Z,9.10
2023-04-18T01:05:05.217Z,9.10
2023-04-18T01:07:33.719Z,9.10
2023-04-18T01:10:03.985Z,9.10
2023-04-18T01:12:42.142Z,9.10
2023-04-18T01:15:10.588Z,9.10
2023-04-18T01:17:39.696Z,9.10
2023-04-18T01:20:10.204Z,9.10
2023-04-18T01:22:38.795Z,9.10
2023-04-18T01:25:24.183Z,9.10
2023-04-18T01:27:55.529Z,9.10
2023-04-18T01:30:31.804Z,9.10
2023-04-18T01:33:01.006Z,9.10
2023-04-18T01:35:29.540Z,9.10
2023-04-18T01:37:58.200Z,9.00
2023-04-18T01:40:27.615Z,9.00
2023-04-18T01:43:02.900Z,9.00
2023-04-18T01:45:38.072Z,9.10
2023-04-18T01:48:06.367Z,9.00
2023-04-18T01:50:34.453Z,9.00
2023-04-18T01:53:02.537Z,9.00
2023-04-18T01:55:31.925Z,9.10
2023-04-18T01:57:59.856Z,9.10
2023-04-18T02:00:28.038Z,9.10
2023-04-18T02:02:59.374Z,9.10
2023-04-18T02:05:28.092Z,9.10
2023-04-18T02:07:56.100Z,9.10
2023-04-18T02:10:24.254Z,9.10
2023-04-18T02:12:53.642Z,9.10
2023-04-18T02:15:21.967Z,9.10
2023-04-18T02:17:50.526Z,9.10
2023-04-18T02:20:26.368Z,9.10
2023-04-18T02:22:54.402Z,9.10
2023-04-18T02:25:28.920Z,9.10
2023-04-18T02:27:59.546Z,9.10
2023-04-18T02:30:28.097Z,9.10
2023-04-18T02:32:57.955Z,9.10
2023-04-18T02:35:26.844Z,9.00
2023-04-18T02:37:55.898Z,9.10
2023-04-18T02:40:23.931Z,9.10
2023-04-18T02:42:53.919Z,9.10
2023-04-18T02:45:23.741Z,9.10
2023-04-18T02:48:06.352Z,9.10
2023-04-18T02:50:35.499Z,9.10
2023-04-18T02:53:03.497Z,9.10
2023-04-18T02:55:32.459Z,9.10
2023-04-18T02:58:00.465Z,9.10
2023-04-18T03:00:30.144Z,9.10
2023-04-18T03:02:58.315Z,9.10
2023-04-18T03:05:26.445Z,9.10
2023-04-18T03:07:54.432Z,9.10
2023-04-18T03:10:22.389Z,9.10
2023-04-18T03:12:50.876Z,9.20
2023-04-18T03:15:19.017Z,9.10
2023-04-18T03:17:52.720Z,9.20
2023-04-18T03:20:21.241Z,9.10
2023-04-18T03:22:49.221Z,9.20
2023-04-18T03:25:17.399Z,9.20
2023-04-18T03:27:45.397Z,9.20
2023-04-18T03:30:13.601Z,9.20
2023-04-18T03:32:42.161Z,9.10
2023-04-18T03:35:14.013Z,9.10
2023-04-18T03:37:42.223Z,9.10
2023-04-18T03:40:11.212Z,9.10
2023-04-18T03:42:39.179Z,9.00
2023-04-18T03:45:08.160Z,9.00
2023-04-18T03:47:36.134Z,8.90
2023-04-18T03:50:04.374Z,8.90
2023-04-18T03:52:34.795Z,8.90
2023-04-18T03:55:02.752Z,8.90
2023-04-18T03:57:30.718Z,8.90
2023-04-18T03:59:58.699Z,8.90
2023-04-18T04:02:26.783Z,8.90
2023-04-18T04:04:54.922Z,8.90
2023-04-18T04:07:31.414Z,8.90
2023-04-18T04:10:01.206Z,8.90
2023-04-18T04:12:29.201Z,9.00
2023-04-18T04:14:57.189Z,9.00
2023-04-18T04:17:25.187Z,9.00
2023-04-18T04:19:53.230Z,9.00
2023-04-18T04:22:21.251Z,9.10
2023-04-18T04:24:49.277Z,9.10
2023-04-18T04:27:18.792Z,9.10
2023-04-18T04:29:46.865Z,9.10
2023-04-18T04:32:16.866Z,9.10
2023-04-18T04:34:46.382Z,9.10
2023-04-18T04:37:15.163Z,9.10
2023-04-18T04:39:43.108Z,9.10
2023-04-18T04:42:12.156Z,9.10
2023-04-18T04:44:42.827Z,9.10
2023-04-18T04:47:10.974Z,9.10
2023-04-18T04:49:39.000Z,9.10
2023-04-18T04:52:07.027Z,9.00
2023-04-18T04:54:35.395Z,9.00
2023-04-18T04:57:10.602Z,9.00
2023-04-18T04:59:47.841Z,9.00
2023-04-18T05:02:17.902Z,9.00
2023-04-18T05:04:48.076Z,9.10
2023-04-18T05:07:16.048Z,9.10
2023-04-18T05:09:44.064Z,9.10
2023-04-18T05:12:12.041Z,9.10
2023-04-18T05:14:39.998Z,9.10
2023-04-18T05:17:09.455Z,9.10
2023-04-18T05:19:37.508Z,9.00
2023-04-18T05:22:05.528Z,9.00
2023-04-18T05:24:33.486Z,9.00
2023-04-18T05:27:01.660Z,9.10
2023-04-18T05:29:29.732Z,9.00
2023-04-18T05:32:02.860Z,9.00
2023-04-18T05:34:32.202Z,9.00
2023-04-18T05:37:00.158Z,9.00
2023-04-18T05:39:28.285Z,9.00
2023-04-18T05:41:56.822Z,9.00
2023-04-18T05:44:25.305Z,9.10
2023-04-18T05:46:53.280Z,9.10
2023-04-18T05:49:21.448Z,9.10
2023-04-18T05:51:52.745Z,9.20
2023-04-18T05:54:21.455Z,9.10
2023-04-18T05:56:49.562Z,9.10
2023-04-18T05:59:27.800Z,9.20
2023-04-18T06:01:57.200Z,9.20
2023-04-18T06:04:25.400Z,9.20
2023-04-18T06:06:54.864Z,9.30
2023-04-18T06:09:22.825Z,9.30
2023-04-18T06:11:51.001Z,9.30
2023-04-18T06:14:18.984Z,9.40
2023-04-18T06:16:49.104Z,9.40
2023-04-18T06:19:17.251Z,9.40
2023-04-18T06:21:45.713Z,9.50
2023-04-18T06:24:15.406Z,9.50
2023-04-18T06:26:43.685Z,9.50
2023-04-18T06:29:11.644Z,9.50
2023-04-18T06:31:45.442Z,9.60
2023-04-18T06:34:14.024Z,9.50
2023-04-18T06:36:42.254Z,9.60
2023-04-18T06:39:10.371Z,9.60
2023-04-18T06:41:39.773Z,9.70
2023-04-18T06:44:07.772Z,9.70
2023-04-18T06:46:35.782Z,9.80
2023-04-18T06:49:03.805Z,9.80
2023-04-18T06:51:32.428Z,9.80
2023-04-18T06:54:00.625Z,9.80
2023-04-18T06:56:29.822Z,10.00
2023-04-18T06:58:59.164Z,10.00
2023-04-18T07:01:27.178Z,10.10
2023-04-18T07:03:55.338Z,10.10
2023-04-18T07:06:23.409Z,10.20
2023-04-18T07:08:53.972Z,10.20
2023-04-18T07:11:30.826Z,10.20
2023-04-18T07:14:00.152Z,10.30
2023-04-18T07:16:28.217Z,10.40
2023-04-18T07:19:01.253Z,10.30
2023-04-18T07:21:31.628Z,10.30
2023-04-18T07:23:59.632Z,10.40
2023-04-18T07:26:27.725Z,10.40
2023-04-18T07:29:03.924Z,10.40
2023-04-18T07:31:32.313Z,10.40
2023-04-18T07:34:00.313Z,10.50
2023-04-18T07:36:31.537Z,10.60
2023-04-18T07:38:59.559Z,10.70
2023-04-18T07:41:27.539Z,10.80
2023-04-18T07:43:55.562Z,10.70
2023-04-18T07:46:24.962Z,10.80
2023-04-18T07:48:52.929Z,10.80
2023-04-18T07:51:31.505Z,10.80
2023-04-18T07:53:59.743Z,10.80
2023-04-18T07:56:27.844Z,10.80
2023-04-18T07:58:55.872Z,10.90
2023-04-18T08:01:27.131Z,10.80
2023-04-18T08:04:04.584Z,10.90
2023-04-18T08:06:33.502Z,10.90
2023-04-18T08:09:05.591Z,10.90
2023-04-18T08:11:36.338Z,11.00
2023-04-18T08:14:04.338Z,11.10
2023-04-18T08:16:40.322Z,11.20
2023-04-18T08:19:08.366Z,11.30
2023-04-18T08:21:36.625Z,11.40
2023-04-18T08:24:04.777Z,11.60
2023-04-18T08:26:32.788Z,11.40
2023-04-18T08:29:00.801Z,11.30
2023-04-18T08:31:31.774Z,11.30
2023-04-18T08:34:04.532Z,11.30
2023-04-18T08:36:33.161Z,11.30
2023-04-18T08:39:01.307Z,11.30
2023-04-18T08:41:31.179Z,11.20
2023-04-18T08:43:59.295Z,11.30
2023-04-18T08:46:29.966Z,11.30
2023-04-18T08:48:59.574Z,11.40
2023-04-18T08:51:41.490Z,11.30
2023-04-18T08:54:18.306Z,11.40
2023-04-18T08:56:46.555Z,11.60
2023-04-18T08:59:19.317Z,11.70
2023-04-18T09:01:56.553Z,11.50
2023-04-18T09:04:36.191Z,11.60
2023-04-18T09:07:07.376Z,11.70
2023-04-18T09:09:46.454Z,11.80
2023-04-18T09:12:18.298Z,11.80
2023-04-18T09:14:48.570Z,11.90
2023-04-18T09:17:21.901Z,11.90
2023-04-18T09:19:56.769Z,11.60
2023-04-18T09:22:26.442Z,11.70
2023-04-18T09:24:57.544Z,11.80
2023-04-18T09:27:26.242Z,11.90
2023-04-18T09:29:57.824Z,12.00
2023-04-18T09:32:29.070Z,12.00
2023-04-18T09:34:59.810Z,12.00
2023-04-18T09:37:30.957Z,12.00
2023-04-18T09:39:58.901Z,12.00
2023-04-18T09:42:28.793Z,12.00
2023-04-18T09:45:03.762Z,12.40
2023-04-18T09:47:32.357Z,12.30
2023-04-18T09:50:00.379Z,12.60
2023-04-18T09:52:36.461Z,12.70
2023-04-18T09:55:06.087Z,13.00
2023-04-18T09:57:35.857Z,12.80
2023-04-18T10:00:14.111Z,12.60
2023-04-18T10:02:52.100Z,12.80
2023-04-18T10:05:22.042Z,13.10
2023-04-18T10:07:52.441Z,13.60
2023-04-18T10:10:20.872Z,13.50
2023-04-18T10:12:50.857Z,13.70
2023-04-18T10:15:21.177Z,13.50
2023-04-18T10:18:03.309Z,14.10
2023-04-18T10:20:42.760Z,14.30
2023-04-18T10:23:39.051Z,14.60
2023-04-18T10:26:07.741Z,14.00
2023-04-18T10:28:54.582Z,14.00
2023-04-18T10:31:23.974Z,14.20
2023-04-18T10:34:17.847Z,14.40
2023-04-18T10:37:04.845Z,14.30
2023-04-18T10:39:49.605Z,13.70
2023-04-18T10:42:55.958Z,13.50
2023-04-18T10:45:27.108Z,13.70
2023-04-18T10:48:24.035Z,14.10
2023-04-18T10:51:20.936Z,14.40
2023-04-18T10:53:53.560Z,14.60
2023-04-18T10:56:23.611Z,14.40
2023-04-18T10:58:54.569Z,14.10
2023-04-18T11:01:31.013Z,14.10
2023-04-18T11:04:01.093Z,14.60
2023-04-18T11:06:48.466Z,15.30
2023-04-18T11:09:16.681Z,15.60
2023-04-18T11:11:46.033Z,15.90
2023-04-18T11:14:14.599Z,15.70
2023-04-18T11:16:42.828Z,15.90
2023-04-18T11:19:23.360Z,16.40
2023-04-18T11:21:52.626Z,16.20
2023-04-18T11:24:24.588Z,16.30
2023-04-18T11:26:55.690Z,16.10
2023-04-18T11:29:23.915Z,16.00
2023-04-18T11:31:54.054Z,16.10
2023-04-18T11:34:29.414Z,16.30
2023-04-18T11:36:57.616Z,16.30
2023-04-18T11:39:25.676Z,16.00
2023-04-18T11:41:57.154Z,16.30
2023-04-18T11:44:25.824Z,16.00
2023-04-18T11:46:53.984Z,16.20
2023-04-18T11:49:32.845Z,16.80
2023-04-18T11:52:01.113Z,16.90
2023-04-18T11:54:39.612Z,17.00
2023-04-18T11:57:20.974Z,16.70
2023-04-18T11:59:53.767Z,16.10
2023-04-18T12:02:23.432Z,16.20
2023-04-18T12:04:53.784Z,16.30
2023-04-18T12:07:46.542Z,16.90
2023-04-18T12:10:32.937Z,17.60
2023-04-18T12:13:02.503Z,17.50
2023-04-18T12:15:40.446Z,17.20
2023-04-18T12:18:09.429Z,17.70
2023-04-18T12:20:39.339Z,18.10
2023-04-18T12:23:07.937Z,18.00
2023-04-18T12:25:36.446Z,17.20
2023-04-18T12:28:15.506Z,16.30
2023-04-18T12:30:44.010Z,16.60
2023-04-18T12:33:12.686Z,17.90
2023-04-18T12:35:41.183Z,17.50
2023-04-18T12:38:09.301Z,17.30
2023-04-18T12:40:39.459Z,17.80
2023-04-18T12:43:09.017Z,17.00
2023-04-18T12:45:42.092Z,17.30
2023-04-18T12:48:10.377Z,17.70
2023-04-18T12:50:38.680Z,18.30
2023-04-18T12:53:06.874Z,17.80
2023-04-18T12:55:34.851Z,17.60
2023-04-18T12:58:03.034Z,17.50
2023-04-18T13:00:33.290Z,17.90
2023-04-18T13:03:01.642Z,18.30
2023-04-18T13:05:33.630Z,18.70
2023-04-18T13:10:33.738Z,18.40
2023-04-18T13:13:01.710Z,18.60
2023-04-18T13:15:33.448Z,18.20
2023-04-18T13:18:04.817Z,17.70
2023-04-18T13:20:33.407Z,16.90
2023-04-18T13:23:01.915Z,17.20
2023-04-18T13:25:31.703Z,17.60
2023-04-18T13:28:00.956Z,17.70
2023-04-18T13:30:39.541Z,18.60
2023-04-18T13:33:07.619Z,18.80
2023-04-18T13:35:36.891Z,18.30
2023-04-18T13:38:05.031Z,18.50
2023-04-18T13:40:33.505Z,17.60
2023-04-18T13:43:01.510Z,17.70
2023-04-18T13:45:29.528Z,18.30
2023-04-18T13:47:59.102Z,18.40
2023-04-18T13:50:33.358Z,19.00
2023-04-18T13:53:01.491Z,18.70
2023-04-18T13:55:29.604Z,19.00
2023-04-18T13:57:57.586Z,18.00
2023-04-18T14:00:26.883Z,18.30
2023-04-18T14:02:57.521Z,18.50
2023-04-18T14:05:27.713Z,18.50
2023-04-18T14:08:01.897Z,18.20
2023-04-18T14:10:29.994Z,17.30
2023-04-18T14:12:58.990Z,17.80
2023-04-18T14:15:27.258Z,17.60
2023-04-18T14:18:09.694Z,17.70
2023-04-18T14:20:44.097Z,17.60
2023-04-18T14:23:23.061Z,18.00
2023-04-18T14:25:51.105Z,17.70
2023-04-18T14:28:21.526Z,16.80
2023-04-18T14:30:49.567Z,16.40
2023-04-18T14:33:17.747Z,16.20
2023-04-18T14:35:49.195Z,16.10
2023-04-18T14:38:17.197Z,16.00
2023-04-18T14:40:45.174Z,15.80
2023-04-18T14:43:14.068Z,16.00
2023-04-18T14:45:44.058Z,16.10
2023-04-18T14:48:12.059Z,16.90
2023-04-18T14:50:41.222Z,17.70
2023-04-18T14:53:10.983Z,18.40
2023-04-18T14:55:41.077Z,18.10
2023-04-18T14:58:09.190Z,18.20
2023-04-18T15:00:37.241Z,17.60
2023-04-18T15:03:06.700Z,17.10
2023-04-18T15:05:38.611Z,16.50
2023-04-18T15:08:06.925Z,17.50
2023-04-18T15:10:36.975Z,17.20
2023-04-18T15:13:05.145Z,16.70
2023-04-18T15:15:39.925Z,16.20
2023-04-18T15:18:08.706Z,15.80
2023-04-18T15:20:39.470Z,15.80
2023-04-18T15:23:14.230Z,15.60
2023-04-18T15:25:45.065Z,15.50
2023-04-18T15:28:13.404Z,15.70
2023-04-18T15:30:48.274Z,15.60
2023-04-18T15:33:20.365Z,15.40
2023-04-18T15:35:52.542Z,16.00
2023-04-18T15:38:22.635Z,16.90
2023-04-18T15:40:52.285Z,17.10
2023-04-18T15:43:21.027Z,17.10
2023-04-18T15:45:49.239Z,17.10
2023-04-18T15:48:17.244Z,17.40
2023-04-18T15:50:52.018Z,16.70
2023-04-18T15:53:21.563Z,15.80
2023-04-18T15:55:51.365Z,15.50
2023-04-18T15:58:20.542Z,15.30
2023-04-18T16:00:50.002Z,15.30
2023-04-18T16:03:24.721Z,15.50
2023-04-18T16:05:53.239Z,15.20
2023-04-18T16:08:21.480Z,15.20
2023-04-18T16:10:52.605Z,15.10
2023-04-18T16:13:20.718Z,15.20
2023-04-18T16:15:48.797Z,15.00
2023-04-18T16:18:17.207Z,14.90
2023-04-18T16:20:45.304Z,14.90
2023-04-18T16:23:16.223Z,14.90
2023-04-18T16:25:44.298Z,15.30
2023-04-18T16:28:13.753Z,16.00
2023-04-18T16:30:43.717Z,15.70
2023-04-18T16:33:12.764Z,15.00
2023-04-18T16:35:41.821Z,14.80
2023-04-18T16:38:09.967Z,14.80
2023-04-18T16:40:38.232Z,14.60
2023-04-18T16:43:07.217Z,14.70
2023-04-18T16:45:46.545Z,14.70
2023-04-18T16:48:14.516Z,14.50
2023-04-18T16:50:45.517Z,14.30
2023-04-18T16:53:13.605Z,14.20
2023-04-18T16:55:43.739Z,14.10
2023-04-18T16:58:11.779Z,14.00
2023-04-18T17:00:42.087Z,14.00
2023-04-18T17:03:17.806Z,13.90
2023-04-18T17:05:46.948Z,13.90
2023-04-18T17:08:15.016Z,13.80
2023-04-18T17:10:43.006Z,13.80
2023-04-18T17:13:11.070Z,13.70
2023-04-18T17:15:39.264Z,13.70
2023-04-18T17:18:07.307Z,13.60
2023-04-18T17:20:37.061Z,13.50
2023-04-18T17:23:05.132Z,13.50
2023-04-18T17:25:33.114Z,13.50
2023-04-18T17:28:02.179Z,13.40
2023-04-18T17:30:30.445Z,13.30
2023-04-18T17:32:58.644Z,13.30
2023-04-18T17:35:27.624Z,13.30
2023-04-18T17:37:57.944Z,13.30
2023-04-18T17:40:26.138Z,13.30
2023-04-18T17:42:54.147Z,13.20
2023-04-18T17:45:22.248Z,13.20
2023-04-18T17:47:54.745Z,13.10
2023-04-18T17:50:25.793Z,13.10
2023-04-18T17:52:54.168Z,13.10
2023-04-18T17:55:23.547Z,13.00
2023-04-18T17:57:51.653Z,13.00
2023-04-18T18:00:21.926Z,12.80
2023-04-18T18:02:50.092Z,12.80
2023-04-18T18:05:18.167Z,12.80
2023-04-18T18:07:47.824Z,12.70
2023-04-18T18:10:19.423Z,12.60
2023-04-18T18:12:48.869Z,12.60
2023-04-18T18:15:16.924Z,12.50
2023-04-18T18:17:54.858Z,12.50
2023-04-18T18:20:23.080Z,12.40
2023-04-18T18:22:51.872Z,12.40
2023-04-18T18:25:20.738Z,12.30
2023-04-18T18:27:51.434Z,12.30
2023-04-18T18:30:19.455Z,12.30
2023-04-18T18:32:55.767Z,12.20
2023-04-18T18:35:23.887Z,12.20
2023-04-18T18:38:01.819Z,12.10
2023-04-18T18:40:29.792Z,12.10
2023-04-18T18:42:59.400Z,12.10
2023-04-18T18:45:27.505Z,12.00
2023-04-18T18:47:55.567Z,12.00
2023-04-18T18:50:32.640Z,12.00
2023-04-18T18:53:01.783Z,12.00
2023-04-18T18:55:31.648Z,11.90
2023-04-18T18:58:03.081Z,11.90
2023-04-18T19:00:31.061Z,11.90
2023-04-18T19:02:59.146Z,11.90
2023-04-18T19:05:27.531Z,11.80
2023-04-18T19:07:55.838Z,11.70
2023-04-18T19:10:24.358Z,11.80
2023-04-18T19:12:52.351Z,11.70
2023-04-18T19:15:22.758Z,11.70
2023-04-18T19:17:51.288Z,11.60
2023-04-18T19:20:19.472Z,11.60
2023-04-18T19:22:47.795Z,11.60
2023-04-18T19:25:16.270Z,11.60
2023-04-18T19:27:47.680Z,11.50
2023-04-18T19:30:17.327Z,11.50
2023-04-18T19:32:47.044Z,11.50
2023-04-18T19:35:17.354Z,11.40
2023-04-18T19:37:45.446Z,11.40
2023-04-18T19:40:14.248Z,11.40
2023-04-18T19:42:43.530Z,11.40
2023-04-18T19:45:15.000Z,11.40
2023-04-18T19:47:44.516Z,11.30
2023-04-18T19:50:21.463Z,11.30
2023-04-18T19:52:50.048Z,11.30
2023-04-18T19:55:18.484Z,11.20
2023-04-18T19:57:46.936Z,11.20
2023-04-18T20:00:22.406Z,11.20
2023-04-18T20:02:51.959Z,11.10
2023-04-18T20:05:24.917Z,11.00
2023-04-18T20:07:53.115Z,11.00
2023-04-18T20:10:22.394Z,11.00
2023-04-18T20:12:52.394Z,11.00
2023-04-18T20:15:21.699Z,10.90
2023-04-18T20:17:56.335Z,10.90
2023-04-18T20:20:29.246Z,10.90
2023-04-18T20:22:57.469Z,10.90
2023-04-18T20:25:28.529Z,10.90
2023-04-18T20:27:56.650Z,10.80
2023-04-18T20:30:26.928Z,10.80
2023-04-18T20:32:59.233Z,10.80
2023-04-18T20:35:29.704Z,10.80
2023-04-18T20:38:00.301Z,10.80
2023-04-18T20:40:29.230Z,10.70
2023-04-18T20:42:58.806Z,10.70
2023-04-18T20:45:37.769Z,10.70
2023-04-18T20:48:06.477Z,10.70
2023-04-18T20:50:35.908Z,10.60
2023-04-18T20:53:04.080Z,10.60
2023-04-18T20:55:44.050Z,10.60
2023-04-18T20:58:12.055Z,10.50
2023-04-18T21:00:44.708Z,10.60
2023-04-18T21:03:16.042Z,10.60
2023-04-18T21:05:45.902Z,10.60
2023-04-18T21:08:21.495Z,10.50
2023-04-18T21:10:57.688Z,10.50
2023-04-18T21:13:25.853Z,10.40
2023-04-18T21:15:57.245Z,10.50
2023-04-18T21:18:25.866Z,10.40
2023-04-18T21:20:55.571Z,10.40
2023-04-18T21:23:26.746Z,10.40
2023-04-18T21:25:54.778Z,10.40
2023-04-18T21:28:22.779Z,10.40
2023-04-18T21:30:50.892Z,10.30
2023-04-18T21:33:19.287Z,10.30
2023-04-18T21:35:47.481Z,10.30
2023-04-18T21:38:18.900Z,10.30
2023-04-18T21:40:47.305Z,10.20
2023-04-18T21:43:15.593Z,10.20
2023-04-18T21:45:43.638Z,10.20
2023-04-18T21:48:11.625Z,10.20
2023-04-18T21:50:39.626Z,10.20
2023-04-18T21:53:27.791Z,10.20
2023-04-18T21:55:55.763Z,10.10
2023-04-18T21:58:23.810Z,10.10
2023-04-18T22:00:52.898Z,10.00
2023-04-18T22:03:21.226Z,10.10
2023-04-18T22:05:50.181Z,10.00
2023-04-18T22:08:43.280Z,10.00
2023-04-18T22:11:13.549Z,9.90
2023-04-18T22:13:44.956Z,9.80
2023-04-18T22:16:13.204Z,9.90
2023-04-18T22:18:41.209Z,9.90
2023-04-18T22:21:17.160Z,9.90
2023-04-18T22:23:46.680Z,9.90
2023-04-18T22:26:16.907Z,9.90
2023-04-18T22:28:44.921Z,9.80
2023-04-18T22:31:13.143Z,9.70
2023-04-18T22:33:43.353Z,9.70
2023-04-18T22:36:11.582Z,9.70
2023-04-18T22:38:39.727Z,9.70
2023-04-18T22:41:16.832Z,9.60
2023-04-18T22:43:52.954Z,9.60
2023-04-18T22:46:27.156Z,9.50
2023-04-18T22:48:55.322Z,9.40
2023-04-18T22:51:30.054Z,9.40
2023-04-18T22:53:58.722Z,9.30
2023-04-18T22:56:28.105Z,9.30
2023-04-18T22:58:56.188Z,9.20
2023-04-18T23:01:28.066Z,9.20
2023-04-18T23:03:56.573Z,9.20
2023-04-18T23:06:24.768Z,9.10
2023-04-18T23:08:52.785Z,9.00
2023-04-18T23:11:28.138Z,9.00
2023-04-18T23:14:02.348Z,9.00
2023-04-18T23:16:30.651Z,9.00
2023-04-18T23:19:17.328Z,9.00
2023-04-18T23:21:46.469Z,9.00
2023-04-18T23:24:16.021Z,9.20
2023-04-18T23:26:55.450Z,9.20
2023-04-18T23:29:38.664Z,9.20
2023-04-18T23:32:07.103Z,9.20
2023-04-18T23:34:35.115Z,9.20
2023-04-18T23:37:03.162Z,9.30
2023-04-18T23:39:31.195Z,9.30
2023-04-18T23:41:59.338Z,9.40
2023-04-18T23:44:27.385Z,9.40
2023-04-18T23:47:02.984Z,9.50
2023-04-18T23:49:39.579Z,9.50
2023-04-18T23:52:08.181Z,9.60
2023-04-18T23:54:36.359Z,9.60
2023-04-18T23:57:04.401Z,9.60
2023-04-18T23:59:32.377Z,9.60
